Αναφορές Αεροδρομίων

 

KSJC - San Jose, California, USA
Distance from station: ΒΑ 14km
Ενημερώθηκε: 25/11/2020 11:53
Συννεφιά
Συννεφιά
 Ανεμος από calm
Ανεμος: Απνοια
Θερμοκρασία: 9°C
Σημείο Δρόσου: 7°C
Υγρασία: 87%
Βαρόμετρο: 1022 hPa
Clouds: Συννεφιά
Visibility: 16 km
Cloud details: Συννεφιά 579 m
2020/11/25 09:53 KSJC 250953Z AUTO 00000KT 10SM OVC019 09/07 A3018 RMK AO2 SLP219 T00890067
KNUQ - Moffett Nas/Mtn, California, USA
Distance from station: Β 14km
Ενημερώθηκε: 15/11/2020 12:00
NOT Current
Αίθριος
Αίθριος
 Ανεμος από calm
Ανεμος: Απνοια
Θερμοκρασία: 6°C
Σημείο Δρόσου: 5°C
Υγρασία: 93%
Βαρόμετρο: 1025.4 hPa
Clouds: Αίθριος
Visibility: 16 km
2020/11/15 10:00 KNUQ 151000Z AUTO 00000KT 10SM CLR 06/05 A3028 RMK AO2
 
KPAO - Palo Alto, California, USA
Distance from station: ΒΒΔ 23km
Ενημερώθηκε: 25/11/2020 04:47
NOT Current
Αίθριος
Αίθριος
 Ανεμος από ΒΒΔ
Ανεμος: ΒΒΔ 11 km/h
Θερμοκρασία: 11°C
Σημείο Δρόσου: 8°C
Υγρασία: 82%
Βαρόμετρο: 1019.6 hPa
Clouds: Αίθριος
Visibility: 16 km
2020/11/25 02:47 KPAO 250247Z 33006KT 10SM SKC 11/08 A3011 RMK LAST
KRHV - San Jose/Reid, California, USA
Distance from station: ΑΒΑ 19km
Ενημερώθηκε: 25/11/2020 07:50
NOT Current
Αίθριος
Αίθριος
 Ανεμος από calm
Ανεμος: Απνοια
Θερμοκρασία: 9°C
Σημείο Δρόσου: 7°C
Υγρασία: 87%
Βαρόμετρο: 1021 hPa
Clouds: Αίθριος
Visibility: 16 km
2020/11/25 05:50 KRHV 250550Z 00000KT 10SM SKC 09/07 A3015
 
KOAK - Oakland, California, USA
Distance from station: ΒΒΔ 50km
Ενημερώθηκε: 25/11/2020 11:53
Few Clouds
Few Clouds
 Ανεμος από calm
Ανεμος: Απνοια
Θερμοκρασία: 12°C
Σημείο Δρόσου: 8°C
Υγρασία: 77%
Βαρόμετρο: 1021.7 hPa
Clouds: Few Clouds
Visibility: 16 km
Cloud details: Few Clouds 457 m
2020/11/25 09:53 KOAK 250953Z 00000KT 10SM FEW015 12/08 A3017 RMK AO2 SLP217 T01170083
KSQL - San Carlos Airpo, California, USA
Distance from station: ΒΔ 34km
Ενημερώθηκε: 25/11/2020 11:55
Σχεδόν νεφελώδης
Σχεδόν νεφελώδης
 Ανεμος από ΝΝΔ
Ανεμος: ΝΝΔ 6 km/h
Θερμοκρασία: 9°C
Σημείο Δρόσου: 8°C
Υγρασία: 94%
Βαρόμετρο: 1022 hPa
Clouds: Σχεδόν νεφελώδης
Visibility: 16 km
Cloud details: Σχεδόν νεφελώδης 457 m
2020/11/25 09:55 KSQL 250955Z AUTO 20003KT 10SM BKN015 09/08 A3018 RMK AO2
 
KSFO - San Francisco, California, USA
Distance from station: ΒΔ 49km
Ενημερώθηκε: 25/11/2020 11:56
Σχεδόν νεφελώδης
Σχεδόν νεφελώδης
 Ανεμος από ΔΒΔ
Ανεμος: ΔΒΔ 19 km/h
Θερμοκρασία: 12°C
Σημείο Δρόσου: 9°C
Υγρασία: 82%
Βαρόμετρο: 1021.3 hPa
Clouds: Σχεδόν νεφελώδης
Visibility: 16 km
Cloud details: Few Clouds 183 m
Σχεδόν νεφελώδης 244 m
2020/11/25 09:56 KSFO 250956Z 29010KT 10SM FEW006 BKN008 12/09 A3016 RMK AO2 SLP214 T01220089
KE16 - San Martin, California, USA
Distance from station: ΑΝΑ 43km
Ενημερώθηκε: 25/11/2020 11:55
Σχεδόν νεφελώδης
Σχεδόν νεφελώδης
 Ανεμος από calm
Ανεμος: Απνοια
Θερμοκρασία: 6°C
Σημείο Δρόσου: 5°C
Υγρασία: 93%
Βαρόμετρο: 1022.4 hPa
Clouds: Σχεδόν νεφελώδης
Visibility: 16 km
Cloud details: Σχεδόν νεφελώδης 274 m
2020/11/25 09:55 KE16 250955Z AUTO 00000KT 10SM BKN009 06/05 A3019 RMK AO2
 
KWVI - Watsonville, California, USA
Distance from station: ΝΝΑ 44km
Ενημερώθηκε: 25/11/2020 11:53
Συννεφιά
Συννεφιά
 Ανεμος από ΒΒΔ
Ανεμος: ΒΒΔ 6 km/h
Θερμοκρασία: 9°C
Σημείο Δρόσου: 8°C
Υγρασία: 94%
Βαρόμετρο: 1022 hPa
Clouds: Συννεφιά
Visibility: 16 km
Cloud details: Συννεφιά 274 m
2020/11/25 09:53 KWVI 250953Z AUTO 34003KT 10SM OVC009 09/08 A3018 RMK AO2 SLP219 T00940078
KHAF - Half Moon Bay, California, USA
Distance from station: ΔΒΔ 50km
Ενημερώθηκε: 25/11/2020 11:55
Συννεφιά
Συννεφιά
 Ανεμος από Β
Ανεμος: Β 9 km/h
Θερμοκρασία: 11°C
Σημείο Δρόσου: 10°C
Υγρασία: 94%
Βαρόμετρο: 1022 hPa
Clouds: Συννεφιά
Visibility: 13 km
Cloud details: Συννεφιά 244 m
2020/11/25 09:55 KHAF 250955Z AUTO 35005KT 8SM OVC008 11/10 A3018 RMK AO2
 
KHWD - Hayward, California, USA
Distance from station: Β 44km
Ενημερώθηκε: 25/11/2020 11:54
Αίθριος
Αίθριος
 Ανεμος από ΝΝΔ
Ανεμος: ΝΝΔ 6 km/h
Θερμοκρασία: 12°C
Σημείο Δρόσου: 8°C
Υγρασία: 77%
Βαρόμετρο: 1021.3 hPa
Clouds: Αίθριος
Visibility: 16 km
2020/11/25 09:54 KHWD 250954Z 21003KT 10SM CLR 12/08 A3016 RMK AO2 SLP224 T01170083
KLVK - Livermore, California, USA
Distance from station: ΒΒΑ 51km
Ενημερώθηκε: 25/11/2020 11:53
Συννεφιά
Συννεφιά
 Ανεμος από Ν
Ανεμος: Ν 11 km/h
Θερμοκρασία: 9°C
Wind Chill: 7°C
Σημείο Δρόσου: 8°C
Υγρασία: 94%
Βαρόμετρο: 1021 hPa
Clouds: Συννεφιά
Visibility: 16 km
Cloud details: Συννεφιά 427 m
2020/11/25 09:53 KLVK 250953Z AUTO 18006KT 10SM OVC014 09/08 A3015 RMK AO2 SLP209 T00940078